Time;durP1;ratioP1;P1;durP2;ratioP2;P2;SDS_P1;SDS_P2;PMS_P1;PMS_P2;Temp;Humidity;BMP_temperature;BMP_pressure;BME280_temperature;BME280_humidity;BME280_pressure;Samples;Min_cycle;Max_cycle;Signal;HPM_P1;HPM_P2
2023/01/20 00:02:56;;;;;;;20.13;11.50;;;;;;;;;;10650281;27;20125;-75
2023/01/20 00:07:57;;;;;;;15.77;10.73;;;;;;;;;;10667297;27;20041;-75
2023/01/20 00:12:57;;;;;;;16.08;10.48;;;;;;;;;;10632982;27;20038;-77
2023/01/20 00:17:58;;;;;;;16.25;10.02;;;;;;;;;;10617623;27;20482;-78
2023/01/20 00:22:58;;;;;;;20.15;11.85;;;;;;;;;;10650533;27;20038;-76
2023/01/20 00:28:00;;;;;;;17.60;10.73;;;;;;;;;;10619022;27;20084;-74
2023/01/20 00:33:00;;;;;;;18.15;10.98;;;;;;;;;;10612832;27;20162;-73
2023/01/20 00:38:01;;;;;;;16.90;11.52;;;;;;;;;;10613704;27;20042;-74
2023/01/20 00:43:02;;;;;;;17.48;11.02;;;;;;;;;;10622990;27;20030;-74
2023/01/20 00:48:02;;;;;;;21.92;11.40;;;;;;;;;;10619995;27;20039;-73
2023/01/20 00:53:03;;;;;;;17.20;10.48;;;;;;;;;;10656034;27;20027;-75
2023/01/20 00:58:04;;;;;;;16.87;10.70;;;;;;;;;;10659062;27;20031;-75
2023/01/20 01:03:06;;;;;;;17.05;10.82;;;;;;;;;;10619751;27;20783;-77
2023/01/20 01:08:09;;;;;;;18.83;12.32;;;;;;;;;;10602747;27;20541;-77
2023/01/20 01:13:10;;;;;;;20.42;13.38;;;;;;;;;;10610887;27;20043;-76
2023/01/20 01:18:11;;;;;;;16.63;10.82;;;;;;;;;;10621291;27;20039;-74
2023/01/20 01:23:13;;;;;;;20.23;11.85;;;;;;;;;;10594920;27;20050;-74
2023/01/20 01:28:13;;;;;;;18.00;12.07;;;;;;;;;;10587279;27;20057;-74
2023/01/20 01:33:14;;;;;;;17.02;11.45;;;;;;;;;;10597114;27;20118;-78
2023/01/20 01:38:14;;;;;;;21.15;12.95;;;;;;;;;;10599690;27;20067;-76
2023/01/20 01:43:21;;;;;;;18.48;11.98;;;;;;;;;;10597090;27;20051;-75
2023/01/20 01:48:27;;;;;;;20.35;12.10;;;;;;;;;;10603841;27;20039;-74
2023/01/20 01:53:29;;;;;;;18.75;11.38;;;;;;;;;;10596584;27;20292;-74
2023/01/20 01:58:32;;;;;;;20.42;12.00;;;;;;;;;;10608095;27;20039;-74
2023/01/20 02:03:53;;;;;;;20.30;11.98;;;;;;;;;;10608172;27;20031;-75
2023/01/20 02:08:55;;;;;;;20.45;12.73;;;;;;;;;;10554959;27;20042;-74
2023/01/20 02:13:55;;;;;;;19.65;12.27;;;;;;;;;;10615990;27;20138;-77
2023/01/20 02:18:58;;;;;;;21.98;12.73;;;;;;;;;;10615536;27;20049;-74
2023/01/20 02:24:11;;;;;;;19.98;12.35;;;;;;;;;;10591689;27;20808;-76
2023/01/20 02:29:30;;;;;;;20.98;11.85;;;;;;;;;;10612777;27;20047;-74
2023/01/20 02:34:37;;;;;;;22.52;13.98;;;;;;;;;;10623183;27;20027;-77
2023/01/20 02:39:59;;;;;;;20.17;12.40;;;;;;;;;;10599171;27;20043;-76
2023/01/20 02:45:05;;;;;;;20.15;11.98;;;;;;;;;;10588004;27;20051;-75
2023/01/20 02:50:08;;;;;;;21.20;12.52;;;;;;;;;;10611410;27;20043;-75
2023/01/20 02:55:15;;;;;;;18.30;12.93;;;;;;;;;;10607633;27;20043;-77
2023/01/20 03:00:20;;;;;;;20.60;12.65;;;;;;;;;;10625087;27;20086;-75
2023/01/20 03:05:24;;;;;;;18.65;12.13;;;;;;;;;;10633138;27;20051;-74
2023/01/20 03:10:26;;;;;;;22.45;13.20;;;;;;;;;;10663413;27;20038;-74
2023/01/20 03:15:31;;;;;;;23.80;13.18;;;;;;;;;;10657995;27;20038;-75
2023/01/20 03:20:33;;;;;;;19.33;12.55;;;;;;;;;;10630259;27;20125;-75
2023/01/20 03:25:43;;;;;;;19.10;12.33;;;;;;;;;;10641557;27;20034;-76
2023/01/20 03:30:43;;;;;;;22.85;13.77;;;;;;;;;;10646926;27;20121;-74
2023/01/20 03:35:45;;;;;;;23.67;14.48;;;;;;;;;;10642167;27;20202;-76
2023/01/20 03:40:52;;;;;;;23.00;15.57;;;;;;;;;;10674316;27;20061;-76
2023/01/20 03:45:55;;;;;;;27.73;15.82;;;;;;;;;;10655843;27;20870;-75
2023/01/20 03:51:08;;;;;;;25.88;15.10;;;;;;;;;;10620945;27;20074;-75
2023/01/20 03:56:10;;;;;;;25.85;15.25;;;;;;;;;;10663843;27;20126;-75
2023/01/20 04:01:13;;;;;;;25.90;16.00;;;;;;;;;;10661449;27;20069;-76
2023/01/20 04:06:15;;;;;;;28.35;15.63;;;;;;;;;;10655719;27;20346;-76
2023/01/20 04:11:19;;;;;;;29.92;16.75;;;;;;;;;;10661987;27;20031;-74
2023/01/20 04:16:21;;;;;;;30.15;16.88;;;;;;;;;;10652104;27;20386;-77
2023/01/20 04:21:32;;;;;;;26.92;14.82;;;;;;;;;;10659563;27;20051;-76
2023/01/20 04:26:33;;;;;;;30.50;17.15;;;;;;;;;;10664653;27;20470;-78
2023/01/20 04:31:34;;;;;;;33.05;17.73;;;;;;;;;;10655812;27;20030;-74
2023/01/20 04:36:34;;;;;;;32.53;17.08;;;;;;;;;;10622473;27;20038;-77
2023/01/20 04:41:35;;;;;;;30.50;18.33;;;;;;;;;;10653073;27;20039;-74
2023/01/20 04:46:35;;;;;;;28.70;16.40;;;;;;;;;;10675747;27;20141;-76
2023/01/20 04:51:35;;;;;;;34.88;18.30;;;;;;;;;;10609994;27;20285;-75
2023/01/20 04:56:36;;;;;;;30.90;17.25;;;;;;;;;;10589447;27;20047;-77
2023/01/20 05:01:36;;;;;;;35.17;18.05;;;;;;;;;;10613724;27;20070;-75
2023/01/20 05:06:37;;;;;;;31.02;17.40;;;;;;;;;;10631513;27;20034;-74
2023/01/20 05:11:37;;;;;;;31.95;17.58;;;;;;;;;;10620175;27;20034;-74
2023/01/20 05:16:38;;;;;;;30.85;18.35;;;;;;;;;;10602053;27;20039;-76
2023/01/20 05:21:38;;;;;;;34.50;17.88;;;;;;;;;;10605719;27;20038;-75
2023/01/20 05:26:39;;;;;;;36.65;18.38;;;;;;;;;;10619036;27;20482;-74
2023/01/20 05:31:42;;;;;;;34.25;19.02;;;;;;;;;;10618182;27;20039;-75
2023/01/20 05:36:42;;;;;;;32.25;17.20;;;;;;;;;;10602872;27;20032;-75
2023/01/20 05:41:44;;;;;;;34.40;17.27;;;;;;;;;;10597278;27;20759;-76
2023/01/20 05:46:45;;;;;;;29.08;16.27;;;;;;;;;;10590053;27;20125;-76
2023/01/20 05:51:45;;;;;;;29.98;16.45;;;;;;;;;;10619217;27;20039;-77
2023/01/20 05:56:48;;;;;;;32.10;16.98;;;;;;;;;;10608796;27;20026;-76
2023/01/20 06:01:48;;;;;;;32.65;16.23;;;;;;;;;;10606181;27;20038;-78
2023/01/20 06:06:48;;;;;;;33.00;18.02;;;;;;;;;;10612306;27;20031;-77
2023/01/20 06:11:49;;;;;;;32.10;16.65;;;;;;;;;;10590524;27;20467;-77
2023/01/20 06:16:50;;;;;;;36.33;18.70;;;;;;;;;;10601482;27;20121;-78
2023/01/20 06:21:52;;;;;;;32.03;17.47;;;;;;;;;;10588957;27;20043;-78
2023/01/20 06:26:52;;;;;;;37.05;17.73;;;;;;;;;;10597549;27;20299;-76
2023/01/20 06:31:53;;;;;;;39.38;18.05;;;;;;;;;;10608539;27;20034;-77
2023/01/20 06:36:55;;;;;;;34.42;17.98;;;;;;;;;;10606203;27;20046;-76
2023/01/20 06:41:59;;;;;;;36.08;19.10;;;;;;;;;;10608868;27;20046;-77
2023/01/20 06:46:59;;;;;;;36.17;18.08;;;;;;;;;;10627176;27;20031;-78
2023/01/20 06:51:59;;;;;;;37.60;19.73;;;;;;;;;;10596659;27;20031;-77
2023/01/20 06:57:01;;;;;;;40.83;21.50;;;;;;;;;;10616963;27;20036;-77
2023/01/20 07:02:02;;;;;;;36.85;20.08;;;;;;;;;;10613463;27;20392;-80
2023/01/20 07:07:03;;;;;;;41.63;20.67;;;;;;;;;;10597459;27;20038;-78
2023/01/20 07:12:05;;;;;;;37.85;19.27;;;;;;;;;;10595007;27;20157;-83
2023/01/20 07:17:09;;;;;;;38.97;19.00;;;;;;;;;;10629979;27;20080;-79
2023/01/20 07:22:12;;;;;;;37.72;19.65;;;;;;;;;;10620388;27;20138;-77
2023/01/20 07:27:13;;;;;;;39.90;19.77;;;;;;;;;;10619701;27;20031;-79
2023/01/20 07:32:15;;;;;;;37.27;19.20;;;;;;;;;;10630583;27;20065;-80
2023/01/20 07:37:15;;;;;;;38.88;19.15;;;;;;;;;;10605626;27;20042;-78
2023/01/20 07:42:16;;;;;;;41.67;19.38;;;;;;;;;;10646802;27;20443;-79
2023/01/20 07:47:16;;;;;;;37.67;19.17;;;;;;;;;;10659545;27;20053;-78
2023/01/20 07:52:24;;;;;;;46.65;19.30;;;;;;;;;;10648682;27;20065;-78
2023/01/20 07:57:25;;;;;;;40.22;19.60;;;;;;;;;;10666189;27;20038;-79
2023/01/20 08:02:25;;;;;;;39.63;19.35;;;;;;;;;;10670576;27;20560;-80
2023/01/20 08:07:25;;;;;;;38.03;18.58;;;;;;;;;;10650339;27;20042;-77
2023/01/20 08:12:27;;;;;;;38.30;19.67;;;;;;;;;;10631151;27;20043;-80
2023/01/20 08:17:27;;;;;;;36.15;18.23;;;;;;;;;;10646675;27;20039;-79
2023/01/20 08:22:28;;;;;;;37.13;19.02;;;;;;;;;;10624233;27;20494;-75
2023/01/20 08:27:28;;;;;;;34.28;17.60;;;;;;;;;;10651310;27;20030;-78
2023/01/20 08:32:28;;;;;;;33.10;16.33;;;;;;;;;;10646411;27;20036;-75
2023/01/20 08:37:30;;;;;;;36.38;17.55;;;;;;;;;;10616177;27;20048;-77
2023/01/20 08:42:30;;;;;;;37.40;18.83;;;;;;;;;;10569479;27;20054;-74
2023/01/20 08:47:34;;;;;;;37.75;19.88;;;;;;;;;;10568617;27;20039;-76
2023/01/20 08:52:35;;;;;;;39.25;19.98;;;;;;;;;;10583949;27;20096;-80
2023/01/20 08:57:35;;;;;;;34.25;18.33;;;;;;;;;;10549357;27;20784;-73
2023/01/20 09:02:37;;;;;;;33.47;17.75;;;;;;;;;;10561088;27;20505;-75
2023/01/20 09:07:37;;;;;;;33.50;18.38;;;;;;;;;;10561257;27;20044;-75
2023/01/20 09:12:38;;;;;;;28.98;16.83;;;;;;;;;;10559474;27;20096;-74
2023/01/20 09:17:39;;;;;;;33.15;16.90;;;;;;;;;;10575974;27;20043;-76
2023/01/20 09:22:39;;;;;;;30.92;16.08;;;;;;;;;;10573726;27;20051;-75
2023/01/20 09:27:40;;;;;;;31.30;16.35;;;;;;;;;;10554831;27;20097;-75
2023/01/20 09:32:40;;;;;;;29.85;16.20;;;;;;;;;;10561907;27;20491;-74
2023/01/20 09:54:03;;;;;;;24.65;13.32;;;;;;;;;;10597591;27;20071;-75
2023/01/20 09:59:26;;;;;;;27.60;13.88;;;;;;;;;;10617636;27;20046;-73
2023/01/20 10:04:35;;;;;;;25.52;13.70;;;;;;;;;;10638526;27;20038;-73
2023/01/20 10:09:54;;;;;;;23.80;13.18;;;;;;;;;;10616786;27;20648;-77
2023/01/20 10:15:12;;;;;;;20.80;11.13;;;;;;;;;;10616458;27;20550;-75
2023/01/20 10:20:27;;;;;;;21.25;11.98;;;;;;;;;;10609317;27;20042;-75
2023/01/20 10:25:31;;;;;;;21.63;12.60;;;;;;;;;;10631274;27;20035;-77
2023/01/20 10:30:33;;;;;;;22.33;11.65;;;;;;;;;;10651433;27;20117;-80
2023/01/20 10:36:01;;;;;;;21.92;11.48;;;;;;;;;;10633251;27;20027;-77
2023/01/20 10:41:08;;;;;;;20.27;11.40;;;;;;;;;;10656622;27;20062;-76
2023/01/20 10:46:27;;;;;;;24.63;12.50;;;;;;;;;;10655377;27;20062;-76
2023/01/20 10:51:29;;;;;;;25.92;13.15;;;;;;;;;;10642385;27;20538;-80
2023/01/20 10:56:33;;;;;;;21.75;12.05;;;;;;;;;;10664837;27;20111;-75
2023/01/20 11:01:35;;;;;;;18.33;10.57;;;;;;;;;;10640094;27;20046;-76
2023/01/20 11:06:38;;;;;;;23.00;12.05;;;;;;;;;;10641726;27;20383;-75
2023/01/20 11:11:40;;;;;;;23.77;12.77;;;;;;;;;;10647879;27;20039;-75
2023/01/20 11:16:45;;;;;;;22.30;12.57;;;;;;;;;;10644987;27;20107;-77
2023/01/20 11:21:49;;;;;;;20.45;12.00;;;;;;;;;;10636124;27;20054;-76
2023/01/20 11:26:49;;;;;;;;;;;;;;;;;;10631621;27;20103;-76
2023/01/20 11:31:52;;;;;;;18.55;10.90;;;;;;;;;;10630055;27;19915;-76
2023/01/20 11:37:02;;;;;;;18.92;10.32;;;;;;;;;;10636516;27;20077;-76
2023/01/20 11:42:23;;;;;;;17.25;10.27;;;;;;;;;;10627565;27;20043;-75
2023/01/20 11:47:35;;;;;;;19.27;11.00;;;;;;;;;;10632592;27;20780;-75
2023/01/20 11:52:37;;;;;;;21.60;11.30;;;;;;;;;;10609379;27;20841;-74
2023/01/20 11:57:41;;;;;;;21.25;12.23;;;;;;;;;;10547360;28;20043;-75
2023/01/20 12:02:43;;;;;;;21.75;10.45;;;;;;;;;;10564068;28;20074;-74
2023/01/20 12:07:45;;;;;;;17.45;10.10;;;;;;;;;;10587903;27;20133;-77
2023/01/20 12:12:52;;;;;;;15.55;10.60;;;;;;;;;;10567801;27;20190;-75
2023/01/20 12:18:00;;;;;;;17.40;10.85;;;;;;;;;;10597097;27;20035;-73
2023/01/20 12:23:20;;;;;;;18.73;11.30;;;;;;;;;;10572927;27;20113;-74
2023/01/20 12:28:35;;;;;;;20.23;11.05;;;;;;;;;;10594724;27;20031;-77
2023/01/20 12:33:48;;;;;;;19.25;10.27;;;;;;;;;;10586500;27;20490;-78
2023/01/20 12:39:11;;;;;;;16.15;9.55;;;;;;;;;;10567659;27;20770;-84
2023/01/20 12:44:44;;;;;;;19.20;10.35;;;;;;;;;;10602366;27;20557;-74
2023/01/20 12:49:59;;;;;;;19.38;10.43;;;;;;;;;;10565435;27;20114;-77
2023/01/20 12:55:14;;;;;;;17.88;10.52;;;;;;;;;;10593107;27;20056;-76
2023/01/20 13:00:27;;;;;;;16.08;9.15;;;;;;;;;;10584617;27;20494;-79
2023/01/20 13:05:54;;;;;;;15.48;9.20;;;;;;;;;;10582059;27;20098;-77
2023/01/20 13:11:36;;;;;;;15.98;7.80;;;;;;;;;;10620057;27;20047;-79
2023/01/20 13:17:20;;;;;;;14.27;7.75;;;;;;;;;;10597688;27;20055;-81
2023/01/20 13:22:21;;;;;;;15.05;8.60;;;;;;;;;;10581646;27;20051;-78
2023/01/20 13:27:23;;;;;;;17.98;9.15;;;;;;;;;;10589778;27;20031;-81
2023/01/20 13:32:39;;;;;;;16.67;8.73;;;;;;;;;;10569911;27;20522;-78
2023/01/20 13:37:39;;;;;;;16.60;9.52;;;;;;;;;;10584355;27;20039;-78
2023/01/20 13:42:43;;;;;;;19.92;9.20;;;;;;;;;;10563475;27;20043;-78
2023/01/20 13:48:04;;;;;;;14.35;9.45;;;;;;;;;;10572704;27;20524;-76
2023/01/20 13:53:05;;;;;;;14.60;9.68;;;;;;;;;;10594399;27;20038;-78
2023/01/20 13:58:26;;;;;;;15.32;8.85;;;;;;;;;;10594404;27;20051;-76
2023/01/20 14:03:38;;;;;;;16.70;8.45;;;;;;;;;;10579402;27;20055;-79
2023/01/20 14:08:42;;;;;;;15.23;9.00;;;;;;;;;;10569448;27;20097;-80
2023/01/20 14:13:51;;;;;;;15.13;9.20;;;;;;;;;;10568393;27;20040;-76
2023/01/20 14:18:57;;;;;;;12.63;8.27;;;;;;;;;;10587259;27;20043;-76
2023/01/20 14:23:58;;;;;;;14.73;8.43;;;;;;;;;;10605014;27;20046;-77
2023/01/20 14:29:01;;;;;;;12.52;7.78;;;;;;;;;;10562880;27;20100;-76
2023/01/20 14:34:18;;;;;;;14.65;8.85;;;;;;;;;;10568461;27;20054;-77
2023/01/20 14:39:20;;;;;;;17.23;9.65;;;;;;;;;;10600932;27;20035;-78
2023/01/20 14:44:22;;;;;;;16.65;9.02;;;;;;;;;;10568430;27;20937;-74
2023/01/20 14:49:27;;;;;;;15.85;9.07;;;;;;;;;;10549751;27;20396;-77
2023/01/20 14:54:40;;;;;;;19.23;9.90;;;;;;;;;;10569637;27;20316;-76
2023/01/20 14:59:40;;;;;;;17.85;9.43;;;;;;;;;;10597144;27;20063;-78
2023/01/20 15:04:42;;;;;;;21.52;11.00;;;;;;;;;;10623128;27;20032;-80
2023/01/20 15:10:06;;;;;;;21.33;11.55;;;;;;;;;;10592235;28;20031;-80
2023/01/20 15:15:11;;;;;;;20.93;11.90;;;;;;;;;;10560618;28;20039;-82
2023/01/20 15:20:30;;;;;;;19.48;12.05;;;;;;;;;;10602718;28;20047;-80
2023/01/20 15:25:35;;;;;;;21.38;12.27;;;;;;;;;;10571850;28;20036;-82
2023/01/20 15:30:36;;;;;;;24.27;12.55;;;;;;;;;;10589545;27;20119;-77
2023/01/20 15:35:38;;;;;;;25.30;12.98;;;;;;;;;;10560407;28;20096;-79
2023/01/20 15:40:38;;;;;;;25.80;13.55;;;;;;;;;;10573104;27;20099;-78
2023/01/20 15:45:40;;;;;;;24.45;13.35;;;;;;;;;;10594895;27;20028;-78
2023/01/20 15:50:41;;;;;;;32.95;14.23;;;;;;;;;;10602470;27;20024;-76
2023/01/20 15:55:44;;;;;;;24.23;12.38;;;;;;;;;;10590702;27;20059;-80
2023/01/20 16:00:46;;;;;;;24.55;13.07;;;;;;;;;;10567897;27;20090;-79
2023/01/20 16:05:47;;;;;;;19.58;10.57;;;;;;;;;;10632437;27;20068;-78
2023/01/20 16:10:49;;;;;;;19.65;11.77;;;;;;;;;;10643506;27;20058;-78
2023/01/20 16:15:51;;;;;;;21.55;11.40;;;;;;;;;;10584025;27;20485;-79
2023/01/20 16:20:51;;;;;;;25.52;12.68;;;;;;;;;;10563621;27;20827;-78
2023/01/20 16:25:53;;;;;;;25.38;13.75;;;;;;;;;;10591933;27;20058;-76
2023/01/20 16:30:55;;;;;;;24.63;13.48;;;;;;;;;;10567899;27;20036;-77
2023/01/20 16:35:56;;;;;;;25.87;14.40;;;;;;;;;;10564161;27;20042;-79
2023/01/20 16:41:02;;;;;;;25.35;13.95;;;;;;;;;;10574155;27;20074;-78
2023/01/20 16:46:02;;;;;;;24.58;13.57;;;;;;;;;;10568530;27;20032;-76
2023/01/20 16:51:05;;;;;;;26.70;15.43;;;;;;;;;;10587062;27;20031;-76
2023/01/20 16:56:10;;;;;;;24.57;14.37;;;;;;;;;;10566797;27;20047;-76
2023/01/20 17:01:11;;;;;;;24.52;13.80;;;;;;;;;;10573682;27;20095;-77
2023/01/20 17:06:13;;;;;;;20.60;12.05;;;;;;;;;;10565366;27;20031;-76
2023/01/20 17:11:18;;;;;;;30.48;16.67;;;;;;;;;;10567326;27;20042;-77
2023/01/20 17:16:19;;;;;;;33.83;19.38;;;;;;;;;;10590805;27;20046;-75
2023/01/20 17:21:20;;;;;;;27.00;16.02;;;;;;;;;;10565603;27;20054;-76
2023/01/20 17:26:21;;;;;;;33.25;18.10;;;;;;;;;;10578411;27;20046;-77
2023/01/20 17:31:22;;;;;;;32.30;16.48;;;;;;;;;;10576982;27;20066;-76
2023/01/20 17:36:24;;;;;;;30.02;17.27;;;;;;;;;;10578095;27;20172;-78
2023/01/20 17:41:24;;;;;;;35.90;19.02;;;;;;;;;;10585492;27;20071;-79
2023/01/20 17:46:29;;;;;;;35.85;17.98;;;;;;;;;;10562982;27;20534;-79
2023/01/20 17:51:29;;;;;;;30.13;16.92;;;;;;;;;;10577587;27;20031;-76
2023/01/20 17:56:30;;;;;;;32.92;19.17;;;;;;;;;;10591185;27;20035;-76
2023/01/20 18:01:32;;;;;;;40.22;19.30;;;;;;;;;;10590499;27;20040;-77
2023/01/20 18:06:34;;;;;;;28.67;16.10;;;;;;;;;;10588725;27;20027;-79
2023/01/20 18:11:36;;;;;;;30.15;17.52;;;;;;;;;;10592403;27;20716;-78
2023/01/20 18:16:37;;;;;;;38.25;20.02;;;;;;;;;;10590906;27;20835;-76
2023/01/20 18:21:40;;;;;;;34.20;17.13;;;;;;;;;;10563614;27;20788;-79
2023/01/20 18:26:41;;;;;;;37.30;20.65;;;;;;;;;;10564600;27;20039;-75
2023/01/20 18:31:45;;;;;;;41.33;21.63;;;;;;;;;;10573515;27;20036;-76
2023/01/20 18:36:45;;;;;;;41.70;23.10;;;;;;;;;;10555316;27;20039;-76
2023/01/20 18:41:46;;;;;;;38.22;19.80;;;;;;;;;;10584243;27;20047;-75
2023/01/20 18:46:47;;;;;;;41.45;22.67;;;;;;;;;;10575284;27;20035;-77
2023/01/20 18:51:48;;;;;;;45.35;23.50;;;;;;;;;;10582792;27;20031;-78
2023/01/20 18:56:49;;;;;;;39.83;21.30;;;;;;;;;;10541243;27;20031;-77
2023/01/20 19:01:49;;;;;;;42.90;23.48;;;;;;;;;;10578073;27;20051;-77
2023/01/20 19:06:51;;;;;;;44.65;24.70;;;;;;;;;;10584531;27;20043;-77
2023/01/20 19:11:51;;;;;;;47.67;27.40;;;;;;;;;;10582911;27;20036;-78
2023/01/20 19:16:52;;;;;;;44.60;26.90;;;;;;;;;;10580629;27;20035;-79
2023/01/20 19:21:53;;;;;;;39.42;23.60;;;;;;;;;;10572046;27;20566;-79
2023/01/20 19:26:53;;;;;;;41.90;23.50;;;;;;;;;;10578181;27;20076;-77
2023/01/20 19:31:54;;;;;;;41.03;23.47;;;;;;;;;;10576861;27;20539;-79
2023/01/20 19:36:54;;;;;;;43.47;24.00;;;;;;;;;;10561363;27;21003;-77
2023/01/20 19:41:56;;;;;;;43.80;23.77;;;;;;;;;;10564733;27;20470;-80
2023/01/20 19:47:01;;;;;;;43.10;23.30;;;;;;;;;;10574210;27;20062;-78
2023/01/20 19:52:01;;;;;;;42.15;24.73;;;;;;;;;;10559930;27;20047;-76
2023/01/20 19:57:02;;;;;;;40.10;22.90;;;;;;;;;;10566234;27;20039;-77
2023/01/20 20:02:02;;;;;;;44.75;22.75;;;;;;;;;;10569809;27;20599;-78
2023/01/20 20:07:03;;;;;;;42.95;23.70;;;;;;;;;;10554386;27;20046;-79
2023/01/20 20:12:05;;;;;;;47.00;24.88;;;;;;;;;;10566282;27;20035;-79
2023/01/20 20:17:05;;;;;;;48.00;24.20;;;;;;;;;;10559555;27;20073;-79
2023/01/20 20:22:05;;;;;;;45.90;24.63;;;;;;;;;;10579465;27;20652;-76
2023/01/20 20:27:06;;;;;;;44.20;23.73;;;;;;;;;;10552518;27;20043;-78
2023/01/20 20:32:08;;;;;;;46.53;24.30;;;;;;;;;;10581086;27;20047;-78
2023/01/20 20:37:09;;;;;;;43.67;23.23;;;;;;;;;;10578688;27;20063;-76
2023/01/20 20:42:09;;;;;;;44.80;22.80;;;;;;;;;;10560509;27;20414;-81
2023/01/20 20:47:10;;;;;;;42.77;22.13;;;;;;;;;;10550188;27;20696;-76
2023/01/20 20:52:11;;;;;;;42.83;22.70;;;;;;;;;;10568512;27;20294;-80
2023/01/20 20:57:12;;;;;;;42.10;22.48;;;;;;;;;;10570870;27;20091;-76
2023/01/20 21:02:13;;;;;;;38.08;21.52;;;;;;;;;;10582400;27;20035;-80
2023/01/20 21:07:14;;;;;;;34.85;20.33;;;;;;;;;;10577700;27;20078;-78
2023/01/20 21:12:17;;;;;;;40.53;20.55;;;;;;;;;;10574398;27;20059;-80
2023/01/20 21:17:19;;;;;;;39.10;21.15;;;;;;;;;;10558270;27;20404;-78
2023/01/20 21:22:23;;;;;;;40.20;19.85;;;;;;;;;;10581709;27;20134;-75
2023/01/20 21:27:25;;;;;;;38.85;20.73;;;;;;;;;;10573703;27;20054;-74
2023/01/20 21:32:27;;;;;;;39.57;21.77;;;;;;;;;;10556427;27;20089;-75
2023/01/20 21:37:27;;;;;;;41.88;22.27;;;;;;;;;;10565766;27;20155;-75
2023/01/20 21:42:28;;;;;;;37.55;22.38;;;;;;;;;;10558729;27;20039;-77
2023/01/20 21:47:28;;;;;;;40.35;23.60;;;;;;;;;;10586587;27;20600;-75
2023/01/20 21:52:41;;;;;;;40.67;22.65;;;;;;;;;;10563380;27;20039;-75
2023/01/20 21:57:42;;;;;;;40.85;21.65;;;;;;;;;;10574042;27;20024;-75
2023/01/20 22:02:43;;;;;;;35.45;20.90;;;;;;;;;;10563731;27;20056;-75
2023/01/20 22:07:46;;;;;;;42.13;22.00;;;;;;;;;;10588834;27;20043;-77
2023/01/20 22:12:48;;;;;;;38.72;21.05;;;;;;;;;;10580564;27;20039;-79
2023/01/20 22:17:50;;;;;;;43.10;23.13;;;;;;;;;;10541905;27;20046;-73
2023/01/20 22:22:51;;;;;;;39.83;21.67;;;;;;;;;;10560468;27;20927;-74
2023/01/20 22:27:52;;;;;;;40.42;23.25;;;;;;;;;;10539574;27;20046;-75
2023/01/20 22:32:52;;;;;;;38.58;21.75;;;;;;;;;;10542547;27;20032;-73
2023/01/20 22:37:53;;;;;;;38.22;20.63;;;;;;;;;;10574118;27;20035;-75
2023/01/20 22:42:53;;;;;;;39.33;21.23;;;;;;;;;;10559024;27;20055;-73
2023/01/20 22:47:54;;;;;;;41.47;22.00;;;;;;;;;;10541098;27;20550;-73
2023/01/20 22:52:54;;;;;;;49.08;22.80;;;;;;;;;;10534635;27;20036;-75
2023/01/20 22:57:57;;;;;;;51.88;24.50;;;;;;;;;;10554637;27;20044;-74
2023/01/20 23:02:58;;;;;;;48.13;23.20;;;;;;;;;;10579144;27;20051;-74
2023/01/20 23:08:00;;;;;;;50.08;22.50;;;;;;;;;;10551646;28;20159;-75
2023/01/20 23:13:01;;;;;;;52.55;24.05;;;;;;;;;;10551189;28;20039;-77
2023/01/20 23:18:02;;;;;;;49.95;22.52;;;;;;;;;;10523692;28;20075;-74
2023/01/20 23:23:03;;;;;;;51.42;23.70;;;;;;;;;;10554189;28;20058;-75
2023/01/20 23:28:04;;;;;;;48.28;21.05;;;;;;;;;;10571168;28;20104;-74
2023/01/20 23:33:05;;;;;;;47.25;21.40;;;;;;;;;;10533970;28;20039;-76
2023/01/20 23:38:09;;;;;;;42.88;19.88;;;;;;;;;;10541270;28;20618;-76
2023/01/20 23:43:09;;;;;;;42.88;19.92;;;;;;;;;;10547539;27;20051;-74
2023/01/20 23:48:10;;;;;;;45.63;20.73;;;;;;;;;;10553533;28;20042;-75
2023/01/20 23:53:10;;;;;;;48.30;20.80;;;;;;;;;;10572738;28;20119;-75
2023/01/20 23:58:11;;;;;;;50.78;21.00;;;;;;;;;;10547222;28;20046;-74
